Terminal Aerodrome Forecast
Issued by NWS Sioux Falls, SD

Home | Current Version | Previous Version | Text Only | Print | Product List | Glossary On
Versions: 1 2 3 4 5 6 7 8 9 10 11 12 13 14
000
FTUS43 KFSD 242320
TAFFSD
TAF
KFSD 242320Z 2500/2524 02014G22KT P6SM VCSH SCT015 OVC050
     FM250200 36010KT P6SM OVC050
     FM250900 01007KT P6SM SCT120
     FM251500 29007KT P6SM SKC=

USA.gov is the U.S. government's official web portal to all federal, state and local government web resources and services.